Time;durP1;ratioP1;P1;durP2;ratioP2;P2;SDS_P1;SDS_P2;PMS_P1;PMS_P2;Temp;Humidity;BMP_temperature;BMP_pressure;BME280_temperature;BME280_humidity;BME280_pressure;Samples;Min_cycle;Max_cycle;Signal;HPM_P1;HPM_P2
2023/08/09 00:01:35;;;;;;;9.55;4.63;;;22.60;67.00;;;;;;5008541;28;20029;-81
2023/08/09 00:04:09;;;;;;;7.03;4.45;;;22.60;68.10;;;;;;5014032;28;20120;-81
2023/08/09 00:06:35;;;;;;;7.93;5.43;;;22.60;68.40;;;;;;5001929;28;20038;-81
2023/08/09 00:09:00;;;;;;;9.57;5.60;;;22.60;68.60;;;;;;4999846;28;20026;-81
2023/08/09 00:11:26;;;;;;;9.07;5.20;;;22.60;68.90;;;;;;5008029;28;20405;-81
2023/08/09 00:13:52;;;;;;;12.05;5.32;;;22.50;68.70;;;;;;5004051;28;20034;-81
2023/08/09 00:16:18;;;;;;;10.80;4.93;;;22.50;68.60;;;;;;5004408;28;20027;-82
2023/08/09 00:18:44;;;;;;;12.90;5.20;;;22.40;68.60;;;;;;5001580;28;20049;-81
2023/08/09 00:21:10;;;;;;;10.23;5.07;;;22.40;69.00;;;;;;4991444;28;20030;-80
2023/08/09 00:23:36;;;;;;;6.63;4.50;;;22.30;69.00;;;;;;4995893;28;20397;-80
2023/08/09 00:26:02;;;;;;;7.15;4.57;;;22.20;69.60;;;;;;4981208;28;20042;-81
2023/08/09 00:28:27;;;;;;;8.00;3.97;;;22.10;70.20;;;;;;4996753;28;20037;-81
2023/08/09 00:30:54;;;;;;;9.37;4.70;;;22.10;70.60;;;;;;4986964;28;20027;-82
2023/08/09 00:33:20;;;;;;;9.20;5.13;;;22.10;71.00;;;;;;5002549;28;20030;-81
2023/08/09 00:35:46;;;;;;;5.77;4.57;;;22.10;71.30;;;;;;5006622;28;20076;-81
2023/08/09 00:38:12;;;;;;;10.45;4.53;;;22.00;71.50;;;;;;4980649;28;20125;-81
2023/08/09 00:40:38;;;;;;;7.85;4.28;;;22.10;71.50;;;;;;5016390;28;20033;-82
2023/08/09 00:43:04;;;;;;;6.57;4.57;;;22.00;71.80;;;;;;5000333;28;20065;-82
2023/08/09 00:45:30;;;;;;;9.47;4.83;;;22.10;71.90;;;;;;5001161;28;20044;-81
2023/08/09 00:47:56;;;;;;;9.30;4.37;;;22.10;71.90;;;;;;4984510;28;20124;-81
2023/08/09 00:50:23;;;;;;;8.52;4.72;;;22.10;72.00;;;;;;5000177;28;20022;-81
2023/08/09 00:52:49;;;;;;;6.85;4.15;;;22.10;71.80;;;;;;4981724;28;20050;-82
2023/08/09 00:55:15;;;;;;;8.37;4.37;;;22.10;71.90;;;;;;4998992;28;20034;-81
2023/08/09 00:57:41;;;;;;;7.15;4.93;;;22.10;72.10;;;;;;4997357;28;20421;-81
2023/08/09 01:00:09;;;;;;;9.57;4.97;;;22.10;72.00;;;;;;5000515;28;20076;-80
2023/08/09 01:02:35;;;;;;;8.38;4.93;;;22.10;72.00;;;;;;5000585;28;20270;-82
2023/08/09 01:05:04;;;;;;;8.33;4.43;;;22.10;72.10;;;;;;4972130;28;20030;-81
2023/08/09 01:07:44;;;;;;;8.27;5.45;;;22.10;72.00;;;;;;5010842;28;20416;-81
2023/08/09 01:10:20;;;;;;;11.10;4.93;;;22.10;71.70;;;;;;4994309;28;20030;-81
2023/08/09 01:12:52;;;;;;;9.95;4.30;;;22.10;71.90;;;;;;4986541;28;20473;-80
2023/08/09 01:15:20;;;;;;;8.27;4.55;;;22.10;71.70;;;;;;4989489;28;20030;-81
2023/08/09 01:17:51;;;;;;;11.60;4.70;;;22.10;72.20;;;;;;4986252;28;20114;-81
2023/08/09 01:20:19;;;;;;;8.48;5.45;;;22.10;71.80;;;;;;4992531;28;20033;-81
2023/08/09 01:22:54;;;;;;;14.85;6.10;;;22.10;71.90;;;;;;5016432;28;20038;-81
2023/08/09 01:25:19;;;;;;;14.85;6.90;;;22.10;71.40;;;;;;4990144;28;20560;-81
2023/08/09 01:27:45;;;;;;;13.93;7.00;;;22.10;71.60;;;;;;4982163;28;20077;-81
2023/08/09 01:30:11;;;;;;;10.32;5.43;;;22.10;71.80;;;;;;4989707;28;20085;-81
2023/08/09 01:32:38;;;;;;;10.50;5.75;;;22.10;71.80;;;;;;4984740;28;20026;-81
2023/08/09 01:35:05;;;;;;;11.07;4.32;;;22.10;71.80;;;;;;5014939;28;20029;-81
2023/08/09 01:37:54;;;;;;;6.55;3.90;;;22.10;71.80;;;;;;5011867;28;20025;-81
2023/08/09 01:40:22;;;;;;;6.88;4.55;;;22.10;72.40;;;;;;4966749;28;20042;-81
2023/08/09 01:42:51;;;;;;;5.68;5.07;;;22.00;72.10;;;;;;4984311;28;20025;-81
2023/08/09 01:45:19;;;;;;;6.07;4.30;;;22.00;72.10;;;;;;5019187;28;20404;-82
2023/08/09 01:47:45;;;;;;;5.90;4.63;;;21.90;72.00;;;;;;5002139;28;20037;-81
2023/08/09 01:50:26;;;;;;;8.00;4.72;;;21.90;72.20;;;;;;4983942;28;20026;-81
2023/08/09 01:52:55;;;;;;;8.55;4.90;;;21.90;72.10;;;;;;4999132;28;20070;-81
2023/08/09 01:55:24;;;;;;;9.60;4.30;;;21.90;72.60;;;;;;4980648;28;20105;-81
2023/08/09 01:57:50;;;;;;;9.77;5.82;;;21.90;73.10;;;;;;4979255;28;20045;-82
2023/08/09 02:00:19;;;;;;;7.75;5.40;;;21.90;73.10;;;;;;4979831;28;20031;-81
2023/08/09 02:02:48;;;;;;;7.40;5.03;;;21.90;73.80;;;;;;4997820;28;20046;-81
2023/08/09 02:05:15;;;;;;;7.75;5.68;;;21.80;74.70;;;;;;4980709;28;20030;-80
2023/08/09 02:07:41;;;;;;;8.02;4.88;;;21.70;75.30;;;;;;4972004;28;20045;-80
2023/08/09 02:10:10;;;;;;;6.80;4.60;;;21.70;75.70;;;;;;4989878;28;20030;-81
2023/08/09 02:12:40;;;;;;;8.82;4.97;;;21.70;76.20;;;;;;4983887;28;20030;-81
2023/08/09 02:15:07;;;;;;;7.88;4.40;;;21.70;75.60;;;;;;5002022;28;20030;-81
2023/08/09 02:17:33;;;;;;;;;;;21.70;75.20;;;;;;4982917;28;20105;-81
2023/08/09 02:19:59;;;;;;;5.35;4.55;;;21.70;73.40;;;;;;5016752;28;20354;-81
2023/08/09 02:22:25;;;;;;;8.00;4.68;;;21.70;75.50;;;;;;5044514;23;20460;-84
2023/08/09 02:24:54;;;;;;;11.38;5.28;;;21.60;75.90;;;;;;4979844;28;20116;-84
2023/08/09 02:27:20;;;;;;;10.05;5.43;;;21.60;76.20;;;;;;4995289;28;20126;-83
2023/08/09 02:29:46;;;;;;;12.40;5.93;;;21.60;76.80;;;;;;5013236;28;20148;-83
2023/08/09 02:32:12;;;;;;;6.93;5.00;;;21.50;77.40;;;;;;5013940;28;20160;-83
2023/08/09 02:34:38;;;;;;;9.70;5.40;;;21.50;77.70;;;;;;4991909;28;20571;-83
2023/08/09 02:37:04;;;;;;;10.43;5.18;;;21.30;77.90;;;;;;5008133;28;20425;-80
2023/08/09 02:39:31;;;;;;;7.28;5.57;;;21.30;78.00;;;;;;5005256;28;20024;-83
2023/08/09 02:41:58;;;;;;;7.72;5.32;;;21.30;77.90;;;;;;4987315;28;20030;-84
2023/08/09 02:44:25;;;;;;;9.23;4.90;;;21.30;77.50;;;;;;4980166;28;20037;-83
2023/08/09 02:46:51;;;;;;;5.82;5.20;;;21.40;77.50;;;;;;4981898;28;20030;-83
2023/08/09 02:49:16;;;;;;;8.23;5.40;;;21.40;77.70;;;;;;4966699;28;20100;-83
2023/08/09 02:51:44;;;;;;;;;;;21.40;77.40;;;;;;4980808;28;20064;-81
2023/08/09 02:54:10;;;;;;;7.68;5.50;;;21.40;75.90;;;;;;4982019;28;19945;-81
2023/08/09 02:56:36;;;;;;;10.52;5.30;;;21.30;77.20;;;;;;4977047;28;20034;-83
2023/08/09 02:59:02;;;;;;;8.02;5.80;;;21.40;77.00;;;;;;4975557;28;20036;-84
2023/08/09 03:01:29;;;;;;;6.63;5.20;;;21.40;77.30;;;;;;4983228;28;20029;-83
2023/08/09 03:03:55;;;;;;;9.57;5.53;;;21.40;77.20;;;;;;4963902;28;20120;-83
2023/08/09 03:06:22;;;;;;;7.82;5.50;;;21.40;77.00;;;;;;4966086;28;20026;-83
2023/08/09 03:08:52;;;;;;;9.70;6.25;;;21.40;77.20;;;;;;4962290;28;20457;-83
2023/08/09 03:11:24;;;;;;;9.55;6.22;;;21.40;76.70;;;;;;4984092;28;20023;-81
2023/08/09 03:13:52;;;;;;;13.85;6.55;;;21.40;77.50;;;;;;4994881;28;20057;-81
2023/08/09 03:16:18;;;;;;;18.98;8.50;;;21.30;77.50;;;;;;4969742;28;20030;-80
2023/08/09 03:18:44;;;;;;;12.93;6.45;;;21.30;77.40;;;;;;4993341;28;20037;-81
2023/08/09 03:21:10;;;;;;;11.00;6.57;;;21.30;77.70;;;;;;5009462;28;20038;-84
2023/08/09 03:23:36;;;;;;;12.40;5.30;;;21.30;77.80;;;;;;4984819;28;20042;-84
2023/08/09 03:26:03;;;;;;;6.93;4.97;;;21.30;77.80;;;;;;4988509;28;20122;-83
2023/08/09 03:28:29;;;;;;;10.45;5.38;;;21.30;77.90;;;;;;4989755;28;20150;-83
2023/08/09 03:30:55;;;;;;;10.48;6.00;;;21.30;77.30;;;;;;4975994;28;20057;-84
2023/08/09 03:33:23;;;;;;;12.25;6.00;;;21.20;77.70;;;;;;4993535;28;20026;-81
2023/08/09 03:35:48;;;;;;;13.02;5.93;;;21.20;78.10;;;;;;4988194;28;20117;-84
2023/08/09 03:38:15;;;;;;;9.95;5.55;;;21.10;78.70;;;;;;4980708;28;20061;-84
2023/08/09 03:40:41;;;;;;;8.97;5.87;;;21.00;78.80;;;;;;4985617;28;20045;-82
2023/08/09 03:43:07;;;;;;;11.82;5.65;;;21.00;78.70;;;;;;5001463;28;20042;-84
2023/08/09 03:45:33;;;;;;;10.50;5.68;;;21.00;78.60;;;;;;4992152;28;20030;-84
2023/08/09 03:47:59;;;;;;;6.85;5.53;;;21.00;78.50;;;;;;4997113;28;20466;-84
2023/08/09 03:50:26;;;;;;;8.68;6.60;;;20.90;78.50;;;;;;4981343;28;20067;-84
2023/08/09 03:52:52;;;;;;;6.83;5.83;;;20.90;78.10;;;;;;4973115;28;20038;-82
2023/08/09 03:55:19;;;;;;;8.52;5.93;;;20.90;78.20;;;;;;4961221;28;20743;-83
2023/08/09 03:57:45;;;;;;;6.65;5.20;;;20.90;77.80;;;;;;4961059;28;20057;-83
2023/08/09 04:00:17;;;;;;;9.47;5.77;;;20.80;78.40;;;;;;4960620;28;20084;-83
2023/08/09 04:02:45;;;;;;;8.27;6.82;;;20.80;78.70;;;;;;4986780;28;20275;-82
2023/08/09 04:05:11;;;;;;;9.88;5.60;;;20.80;78.80;;;;;;4980338;28;20022;-81
2023/08/09 04:07:37;;;;;;;8.85;6.68;;;20.80;79.20;;;;;;5013823;28;20026;-82
2023/08/09 04:10:06;;;;;;;8.07;6.15;;;20.70;79.50;;;;;;5014088;28;20026;-82
2023/08/09 04:12:34;;;;;;;9.25;6.18;;;20.70;80.10;;;;;;4996351;28;20034;-82
2023/08/09 04:15:00;;;;;;;8.27;5.78;;;20.70;80.40;;;;;;4980134;28;20555;-82
2023/08/09 04:17:26;;;;;;;8.07;5.93;;;20.70;80.60;;;;;;4996064;28;20072;-82
2023/08/09 04:19:52;;;;;;;11.10;6.25;;;20.70;80.60;;;;;;5014110;28;20068;-82
2023/08/09 04:22:18;;;;;;;10.35;5.78;;;20.70;81.30;;;;;;5014175;28;20026;-82
2023/08/09 04:24:44;;;;;;;8.70;5.53;;;20.70;81.80;;;;;;4996846;28;20038;-83
2023/08/09 04:27:11;;;;;;;11.73;6.18;;;20.70;82.00;;;;;;5000087;28;20034;-83
2023/08/09 04:29:37;;;;;;;10.18;5.78;;;20.70;82.50;;;;;;4996205;28;20018;-82
2023/08/09 04:32:03;;;;;;;11.80;5.90;;;20.70;82.60;;;;;;4997873;28;20034;-80
2023/08/09 04:34:29;;;;;;;9.07;5.20;;;20.80;82.60;;;;;;5000375;28;20495;-80
2023/08/09 04:36:55;;;;;;;9.65;6.60;;;20.80;82.60;;;;;;4996372;28;20268;-82
2023/08/09 04:39:23;;;;;;;11.45;6.85;;;20.80;82.30;;;;;;5013459;28;20129;-82
2023/08/09 04:41:49;;;;;;;8.65;6.50;;;20.70;82.30;;;;;;5015878;28;20500;-81
2023/08/09 04:44:15;;;;;;;9.07;5.72;;;20.70;82.50;;;;;;5013690;28;20033;-83
2023/08/09 04:46:41;;;;;;;6.45;5.75;;;20.60;82.90;;;;;;4995888;28;20030;-83
2023/08/09 04:49:07;;;;;;;7.68;6.18;;;20.60;83.00;;;;;;5013164;28;20053;-83
2023/08/09 04:51:33;;;;;;;7.40;5.85;;;20.40;84.70;;;;;;4979640;28;20037;-82
2023/08/09 04:53:59;;;;;;;8.77;6.55;;;20.30;84.70;;;;;;5013199;28;20184;-82
2023/08/09 04:56:24;;;;;;;9.00;6.20;;;20.40;84.50;;;;;;4996466;28;20033;-83
2023/08/09 04:58:50;;;;;;;7.47;6.07;;;20.40;85.00;;;;;;5013409;28;20030;-82
2023/08/09 05:01:16;;;;;;;7.20;5.65;;;20.40;84.80;;;;;;5014232;28;20038;-83
2023/08/09 05:03:42;;;;;;;7.65;6.00;;;20.40;84.60;;;;;;4997189;28;20042;-82
2023/08/09 05:06:08;;;;;;;7.97;5.55;;;20.50;84.60;;;;;;5012986;28;20130;-83
2023/08/09 05:08:34;;;;;;;5.88;5.28;;;20.50;84.70;;;;;;5012623;28;20041;-83
2023/08/09 05:11:00;;;;;;;12.15;7.45;;;20.60;84.80;;;;;;5012986;28;20029;-83
2023/08/09 05:13:26;;;;;;;11.48;6.50;;;20.60;84.70;;;;;;4995302;28;20060;-83
2023/08/09 05:15:52;;;;;;;10.43;6.38;;;20.60;84.80;;;;;;5013008;28;20038;-83
2023/08/09 05:18:18;;;;;;;8.45;6.38;;;20.70;85.20;;;;;;4979106;28;20514;-83
2023/08/09 05:20:44;;;;;;;18.50;7.15;;;20.60;85.30;;;;;;4995388;28;20101;-82
2023/08/09 05:23:09;;;;;;;10.82;7.38;;;20.70;85.50;;;;;;5012552;28;20500;-82
2023/08/09 05:25:35;;;;;;;7.15;6.45;;;20.70;85.30;;;;;;4995291;28;20045;-82
2023/08/09 05:28:02;;;;;;;7.93;6.75;;;20.80;85.30;;;;;;4995356;28;20631;-83
2023/08/09 05:30:28;;;;;;;10.95;6.85;;;20.70;85.90;;;;;;4995386;28;20030;-82
2023/08/09 05:32:54;;;;;;;9.98;6.97;;;20.70;86.40;;;;;;5012962;28;20492;-83
2023/08/09 05:35:19;;;;;;;10.85;6.70;;;20.70;86.40;;;;;;4995341;28;20493;-82
2023/08/09 05:37:45;;;;;;;9.88;6.65;;;20.70;86.30;;;;;;4978274;28;20818;-81
2023/08/09 05:40:13;;;;;;;7.03;6.28;;;20.80;85.90;;;;;;4979070;28;20040;-83
2023/08/09 05:42:40;;;;;;;12.35;7.50;;;20.80;86.10;;;;;;5012623;28;20033;-81
2023/08/09 05:45:06;;;;;;;9.63;7.63;;;20.80;86.00;;;;;;5012705;28;20176;-84
2023/08/09 05:47:32;;;;;;;11.98;8.15;;;20.70;86.30;;;;;;4988078;28;20037;-82
2023/08/09 05:49:58;;;;;;;11.75;7.82;;;20.70;86.30;;;;;;4975588;28;20026;-83
2023/08/09 05:52:24;;;;;;;14.00;7.33;;;20.70;86.30;;;;;;5004272;28;20033;-83
2023/08/09 05:54:50;;;;;;;9.32;7.97;;;20.70;86.60;;;;;;5012469;28;20268;-83
2023/08/09 05:57:16;;;;;;;10.25;7.38;;;20.70;86.90;;;;;;5003625;28;20081;-84
2023/08/09 05:59:42;;;;;;;13.98;8.18;;;20.70;87.20;;;;;;4976397;28;20085;-82
2023/08/09 06:02:07;;;;;;;11.18;8.65;;;20.70;87.40;;;;;;4968251;28;20030;-82
2023/08/09 06:04:34;;;;;;;11.25;8.13;;;20.80;87.20;;;;;;5013585;28;20053;-83
2023/08/09 06:07:00;;;;;;;11.50;8.23;;;20.80;87.20;;;;;;5006368;28;20033;-82
2023/08/09 06:09:26;;;;;;;8.82;8.00;;;20.90;87.10;;;;;;4975364;28;20034;-82
2023/08/09 06:11:52;;;;;;;13.65;8.60;;;21.00;87.20;;;;;;4993558;28;20396;-82
2023/08/09 06:14:17;;;;;;;12.50;7.82;;;21.00;87.40;;;;;;4975714;28;20076;-83
2023/08/09 06:16:47;;;;;;;16.13;7.72;;;21.00;87.20;;;;;;4959398;28;20030;-83
2023/08/09 06:19:13;;;;;;;11.77;7.90;;;21.10;86.80;;;;;;5001884;28;20084;-82
2023/08/09 06:21:40;;;;;;;14.70;7.50;;;21.10;86.90;;;;;;5008701;28;20038;-82
2023/08/09 06:24:07;;;;;;;9.10;7.25;;;21.20;87.00;;;;;;5001252;28;20580;-84
2023/08/09 06:26:33;;;;;;;7.93;6.57;;;21.30;87.20;;;;;;5012507;28;20581;-83
2023/08/09 06:29:00;;;;;;;9.50;7.50;;;21.50;86.70;;;;;;5013541;28;20030;-83
2023/08/09 06:31:26;;;;;;;10.27;6.47;;;21.70;87.00;;;;;;4994622;28;20033;-84
2023/08/09 06:33:53;;;;;;;7.03;4.32;;;21.80;83.90;;;;;;4980808;28;20046;-83
2023/08/09 06:36:19;;;;;;;10.30;5.53;;;21.90;81.90;;;;;;4994637;28;20035;-82
2023/08/09 06:38:45;;;;;;;11.35;5.13;;;22.00;80.50;;;;;;4993464;28;20131;-82
2023/08/09 06:41:11;;;;;;;8.80;5.53;;;22.10;80.20;;;;;;4976498;28;20573;-82
2023/08/09 06:43:37;;;;;;;8.48;5.07;;;22.30;79.80;;;;;;4994131;28;20037;-82
2023/08/09 06:46:03;;;;;;;7.45;5.20;;;22.40;80.10;;;;;;4976969;28;20561;-82
2023/08/09 06:48:32;;;;;;;13.65;5.68;;;22.50;80.10;;;;;;4993187;28;20065;-82
2023/08/09 06:51:00;;;;;;;8.57;4.80;;;22.50;80.10;;;;;;4995944;28;20030;-82
2023/08/09 06:53:26;;;;;;;16.13;7.38;;;22.60;80.20;;;;;;4978747;28;20038;-85
2023/08/09 06:55:53;;;;;;;13.93;5.68;;;22.60;80.20;;;;;;4980715;28;20041;-80
2023/08/09 06:58:19;;;;;;;6.30;4.20;;;22.60;80.20;;;;;;4996815;28;20161;-80
2023/08/09 07:00:46;;;;;;;5.25;4.45;;;22.60;80.40;;;;;;4997086;28;20401;-80
2023/08/09 07:03:12;;;;;;;;;;;22.60;80.40;;;;;;4979763;28;20057;-80
2023/08/09 07:05:38;;;;;;;5.85;4.43;;;22.70;80.00;;;;;;4963178;28;19920;-80
2023/08/09 07:08:05;;;;;;;7.95;4.45;;;22.70;79.90;;;;;;4996237;28;20026;-79
2023/08/09 07:10:30;;;;;;;9.80;4.57;;;22.70;79.40;;;;;;4996571;28;20026;-79
2023/08/09 07:12:56;;;;;;;4.63;3.80;;;22.80;79.40;;;;;;4996589;28;20454;-80
2023/08/09 07:15:23;;;;;;;4.20;3.47;;;23.00;79.20;;;;;;4979475;28;20113;-79
2023/08/09 07:17:49;;;;;;;6.07;4.15;;;23.00;78.30;;;;;;4979232;28;20034;-80
2023/08/09 07:20:15;;;;;;;7.57;3.50;;;23.10;77.80;;;;;;4979618;28;20561;-80
2023/08/09 07:22:42;;;;;;;6.05;3.47;;;23.20;77.80;;;;;;4979463;28;20037;-79
2023/08/09 07:25:09;;;;;;;7.55;3.30;;;23.30;77.10;;;;;;4980571;28;20526;-78
2023/08/09 07:27:40;;;;;;;7.05;2.88;;;23.40;77.20;;;;;;4980182;28;20030;-79
2023/08/09 07:30:07;;;;;;;9.82;3.25;;;23.40;77.70;;;;;;4978882;28;20034;-79
2023/08/09 07:32:33;;;;;;;4.85;3.38;;;23.40;77.10;;;;;;4978868;28;20034;-78
2023/08/09 07:34:58;;;;;;;6.17;2.77;;;23.40;76.40;;;;;;4996529;28;20114;-79
2023/08/09 07:37:24;;;;;;;7.27;2.87;;;23.40;77.00;;;;;;4978277;28;20424;-80
2023/08/09 07:39:50;;;;;;;8.32;2.95;;;23.40;77.20;;;;;;4978966;28;20041;-78
2023/08/09 07:42:16;;;;;;;3.10;2.07;;;23.40;77.60;;;;;;4995849;28;20567;-80
2023/08/09 07:44:42;;;;;;;3.97;2.33;;;23.40;76.80;;;;;;4978285;28;20052;-81
2023/08/09 07:47:08;;;;;;;4.67;2.43;;;23.40;76.60;;;;;;4995438;28;20038;-80
2023/08/09 07:49:34;;;;;;;2.95;1.83;;;23.50;76.90;;;;;;4995047;28;20022;-79
2023/08/09 07:51:59;;;;;;;4.90;1.80;;;23.60;76.30;;;;;;4994533;28;20034;-79
2023/08/09 07:54:25;;;;;;;3.08;2.13;;;23.60;75.90;;;;;;4977983;28;20265;-80
2023/08/09 07:56:51;;;;;;;5.43;2.17;;;23.70;76.00;;;;;;4995271;28;20022;-80
2023/08/09 07:59:18;;;;;;;3.67;1.97;;;23.80;76.30;;;;;;4961476;28;20061;-80
2023/08/09 08:01:44;;;;;;;5.07;1.73;;;23.80;76.00;;;;;;4994409;28;20446;-80
2023/08/09 08:04:10;;;;;;;3.70;2.42;;;23.90;75.50;;;;;;4995081;28;20034;-80
2023/08/09 08:06:36;;;;;;;5.00;2.10;;;23.90;75.40;;;;;;4977251;28;20030;-80
2023/08/09 08:09:04;;;;;;;4.95;2.28;;;24.00;75.10;;;;;;4994853;28;20034;-80
2023/08/09 08:11:31;;;;;;;4.40;2.08;;;24.10;74.40;;;;;;4995096;28;20037;-80
2023/08/09 08:13:57;;;;;;;3.88;2.35;;;24.20;74.50;;;;;;4994917;28;20445;-80
2023/08/09 08:16:23;;;;;;;6.07;2.65;;;24.40;74.30;;;;;;4995685;28;20084;-80
2023/08/09 08:18:49;;;;;;;7.90;2.30;;;24.50;73.40;;;;;;4995228;28;20038;-80
2023/08/09 08:21:15;;;;;;;3.27;2.50;;;24.60;73.00;;;;;;4978159;28;20045;-80
2023/08/09 08:23:41;;;;;;;3.63;2.17;;;24.70;71.80;;;;;;5057297;23;20053;-78
2023/08/09 08:26:07;;;;;;;10.37;2.83;;;24.70;71.00;;;;;;5030881;28;20061;-78
2023/08/09 08:28:33;;;;;;;6.63;2.30;;;24.70;71.90;;;;;;5031251;28;20040;-78
2023/08/09 08:31:04;;;;;;;10.57;3.13;;;24.80;72.40;;;;;;5014014;28;20045;-78
2023/08/09 08:33:30;;;;;;;4.35;2.92;;;24.90;71.60;;;;;;5030340;28;20030;-78
2023/08/09 08:35:56;;;;;;;8.23;3.27;;;24.90;71.60;;;;;;5012021;28;20404;-79
2023/08/09 08:38:23;;;;;;;10.10;2.93;;;24.90;71.90;;;;;;5031295;28;20026;-78
2023/08/09 08:40:48;;;;;;;5.72;2.90;;;24.80;72.80;;;;;;5013073;28;20034;-81
2023/08/09 08:43:14;;;;;;;7.80;2.70;;;24.80;72.30;;;;;;5028197;28;20512;-78
2023/08/09 08:45:41;;;;;;;12.20;3.23;;;24.80;72.50;;;;;;5013257;28;20030;-78
2023/08/09 08:48:08;;;;;;;;;;;24.90;72.60;;;;;;5014726;28;20270;-78
2023/08/09 08:50:40;;;;;;;14.35;4.05;;;25.00;71.90;;;;;;5032171;28;19916;-79
2023/08/09 08:53:07;;;;;;;6.90;2.90;;;25.10;71.70;;;;;;4998008;28;20037;-79
2023/08/09 08:55:33;;;;;;;7.85;2.47;;;25.20;71.20;;;;;;5031866;28;20024;-78
2023/08/09 08:58:00;;;;;;;7.15;2.78;;;25.30;70.80;;;;;;5032306;28;20030;-78
2023/08/09 09:00:26;;;;;;;7.65;2.97;;;25.40;70.00;;;;;;5013938;28;20034;-79
2023/08/09 09:02:52;;;;;;;7.40;2.50;;;25.40;70.20;;;;;;5031685;28;20056;-78
2023/08/09 09:05:18;;;;;;;6.85;2.40;;;25.50;70.60;;;;;;5031473;28;20022;-78
2023/08/09 09:07:46;;;;;;;4.40;1.73;;;25.40;69.20;;;;;;5014300;28;20038;-78
2023/08/09 09:10:13;;;;;;;2.97;1.95;;;25.40;70.20;;;;;;5014835;28;20093;-78
2023/08/09 09:12:39;;;;;;;;;;;25.40;70.20;;;;;;5014517;28;20037;-78
2023/08/09 09:15:06;;;;;;;9.32;2.08;;;25.30;69.80;;;;;;5031797;28;19929;-78
2023/08/09 09:17:39;;;;;;;6.78;2.00;;;25.30;70.20;;;;;;5031274;28;20029;-78
2023/08/09 09:20:10;;;;;;;4.07;2.05;;;25.30;69.00;;;;;;5030565;28;20034;-78
2023/08/09 09:22:37;;;;;;;6.78;2.33;;;25.20;69.00;;;;;;5031887;28;20407;-78
2023/08/09 09:25:09;;;;;;;7.00;2.20;;;25.10;69.20;;;;;;5013472;28;20381;-78
2023/08/09 09:27:35;;;;;;;13.18;2.35;;;25.10;70.40;;;;;;5031841;28;20033;-78
2023/08/09 09:30:12;;;;;;;4.77;2.30;;;25.10;70.70;;;;;;5014376;28;20029;-78
2023/08/09 09:32:51;;;;;;;10.48;2.03;;;25.20;70.20;;;;;;5030975;28;20049;-79
2023/08/09 09:35:18;;;;;;;4.85;2.10;;;25.20;69.70;;;;;;5031485;28;20030;-79
2023/08/09 09:37:47;;;;;;;;;;;25.30;69.70;;;;;;5013331;28;20093;-78
2023/08/09 09:40:31;;;;;;;8.73;2.35;;;25.40;69.40;;;;;;5012686;28;20403;-78
2023/08/09 09:42:58;;;;;;;6.45;3.47;;;25.50;69.70;;;;;;5013372;28;20033;-78
2023/08/09 09:45:25;;;;;;;;;;;25.60;69.40;;;;;;5013745;28;20064;-78
2023/08/09 09:47:53;;;;;;;8.90;2.78;;;25.60;68.80;;;;;;5013488;28;19985;-78
2023/08/09 09:50:22;;;;;;;6.70;1.73;;;25.60;68.20;;;;;;5022226;28;20388;-82
2023/08/09 09:52:49;;;;;;;5.22;1.75;;;25.60;68.30;;;;;;5008550;28;20061;-83
2023/08/09 09:55:25;;;;;;;;;;;25.70;66.30;;;;;;5011549;28;20022;-79
2023/08/09 09:57:52;;;;;;;8.95;3.08;;;25.80;67.20;;;;;;5012831;28;20310;-78
2023/08/09 10:00:25;;;;;;;6.15;1.73;;;25.90;67.00;;;;;;5029074;28;20048;-79
2023/08/09 10:02:52;;;;;;;6.72;1.83;;;25.90;66.60;;;;;;5010181;28;20125;-79
2023/08/09 10:05:22;;;;;;;2.50;1.80;;;26.10;65.20;;;;;;5028429;28;20030;-79
2023/08/09 10:07:49;;;;;;;7.55;2.58;;;26.10;64.70;;;;;;5028667;28;20029;-78
2023/08/09 10:10:17;;;;;;;7.57;2.05;;;26.10;64.60;;;;;;5004894;28;20026;-79
2023/08/09 10:12:54;;;;;;;6.30;2.00;;;26.20;66.10;;;;;;5007002;28;20098;-79
2023/08/09 10:15:27;;;;;;;6.53;1.80;;;26.20;65.20;;;;;;5026679;28;20030;-79
2023/08/09 10:18:10;;;;;;;6.25;1.90;;;26.30;65.80;;;;;;5025995;28;20455;-79
2023/08/09 10:20:47;;;;;;;10.20;2.45;;;26.50;66.10;;;;;;5027189;28;20506;-79
2023/08/09 10:23:28;;;;;;;3.92;2.13;;;26.60;65.10;;;;;;5029730;28;20033;-79
2023/08/09 10:25:55;;;;;;;8.10;2.30;;;26.70;63.40;;;;;;5032825;28;20108;-79
2023/08/09 10:28:47;;;;;;;;;;;26.70;64.00;;;;;;5033696;28;20028;-79
2023/08/09 10:31:14;;;;;;;6.95;1.85;;;26.80;63.40;;;;;;5032584;28;19913;-79
2023/08/09 10:34:06;;;;;;;5.45;2.33;;;26.90;61.00;;;;;;5032829;28;20018;-79
2023/08/09 10:36:33;;;;;;;4.03;1.58;;;26.90;60.70;;;;;;5004044;28;20041;-79
2023/08/09 10:39:07;;;;;;;6.00;2.45;;;27.00;60.60;;;;;;5032173;28;20034;-80
2023/08/09 10:41:33;;;;;;;4.45;2.33;;;27.00;59.10;;;;;;5012412;28;20044;-79
2023/08/09 10:44:03;;;;;;;3.20;2.03;;;27.00;59.10;;;;;;4996847;28;20053;-79
2023/08/09 10:46:32;;;;;;;6.53;2.10;;;27.10;58.10;;;;;;5027402;28;20084;-80
2023/08/09 10:49:05;;;;;;;6.53;2.05;;;27.20;58.40;;;;;;5020962;28;20030;-79
2023/08/09 10:51:33;;;;;;;7.93;2.17;;;27.20;59.80;;;;;;5019471;28;20464;-79
2023/08/09 10:54:05;;;;;;;8.05;1.67;;;27.20;59.20;;;;;;5000121;28;20158;-79
2023/08/09 10:56:41;;;;;;;3.97;2.13;;;27.30;59.40;;;;;;5001069;28;20023;-80
2023/08/09 10:59:12;;;;;;;6.93;1.88;;;27.50;58.30;;;;;;5008407;28;20061;-79
2023/08/09 11:01:40;;;;;;;7.63;2.47;;;27.60;57.10;;;;;;5001373;28;20038;-79
2023/08/09 11:04:13;;;;;;;3.72;1.73;;;27.70;57.80;;;;;;5017192;28;20049;-79
2023/08/09 11:06:49;;;;;;;8.45;1.85;;;27.70;56.80;;;;;;4999154;28;20094;-79
2023/08/09 11:09:16;;;;;;;6.63;2.42;;;27.80;56.80;;;;;;5028169;28;20076;-79
2023/08/09 11:11:43;;;;;;;4.30;1.70;;;27.80;56.30;;;;;;5022874;28;20489;-80
2023/08/09 11:14:11;;;;;;;10.02;1.98;;;27.80;55.60;;;;;;5012471;28;20050;-79
2023/08/09 11:16:38;;;;;;;8.55;2.08;;;27.90;55.40;;;;;;4989221;28;20090;-82
2023/08/09 11:19:10;;;;;;;9.82;2.35;;;28.00;54.10;;;;;;4985876;28;20038;-83
2023/08/09 11:21:45;;;;;;;4.72;1.98;;;28.00;53.10;;;;;;5006670;28;20036;-82
2023/08/09 11:24:13;;;;;;;2.83;1.73;;;27.90;53.00;;;;;;4991978;28;20035;-84
2023/08/09 11:26:46;;;;;;;4.45;2.00;;;27.80;53.70;;;;;;4999973;28;20026;-83
2023/08/09 11:29:13;;;;;;;6.45;1.67;;;28.00;53.60;;;;;;4989376;28;20026;-83
2023/08/09 11:31:41;;;;;;;3.17;1.55;;;28.10;52.60;;;;;;5005444;28;20030;-83
2023/08/09 11:34:07;;;;;;;4.90;2.22;;;28.20;51.70;;;;;;5022595;28;20034;-83
2023/08/09 11:36:33;;;;;;;3.60;1.80;;;28.20;51.50;;;;;;5004041;28;20041;-83
2023/08/09 11:38:59;;;;;;;5.72;1.80;;;28.40;52.00;;;;;;5003672;28;20038;-83
2023/08/09 11:41:27;;;;;;;5.50;1.65;;;28.60;52.90;;;;;;5002156;28;20022;-83
2023/08/09 11:43:54;;;;;;;5.35;1.85;;;28.70;51.20;;;;;;4971530;28;20030;-81
2023/08/09 11:46:24;;;;;;;6.20;1.77;;;28.90;52.20;;;;;;5022004;28;20034;-80
2023/08/09 11:48:51;;;;;;;4.63;2.00;;;29.00;50.50;;;;;;4990170;28;20034;-80
2023/08/09 11:51:19;;;;;;;69.47;61.85;;;29.20;50.60;;;;;;4992907;28;20039;-80
2023/08/09 11:53:48;;;;;;;22.38;19.52;;;29.10;49.40;;;;;;4999652;28;20026;-80
2023/08/09 11:56:16;;;;;;;6.35;3.08;;;29.10;49.60;;;;;;5012425;28;20033;-81
2023/08/09 11:58:44;;;;;;;6.32;1.80;;;29.00;50.20;;;;;;5030131;28;20037;-81
2023/08/09 12:01:18;;;;;;;5.22;1.95;;;28.90;49.80;;;;;;5023375;28;20030;-80
2023/08/09 12:03:45;;;;;;;3.45;1.55;;;29.00;49.30;;;;;;5028176;28;20060;-79
2023/08/09 12:06:11;;;;;;;5.35;1.85;;;29.10;49.40;;;;;;5019850;28;20026;-79
2023/08/09 12:08:38;;;;;;;3.40;1.55;;;29.20;50.00;;;;;;4987904;28;20037;-79
2023/08/09 12:11:04;;;;;;;4.68;1.42;;;29.20;50.80;;;;;;5026546;28;20030;-79
2023/08/09 12:13:31;;;;;;;5.05;1.75;;;29.50;50.20;;;;;;4999074;28;20030;-80
2023/08/09 12:15:57;;;;;;;3.00;1.80;;;29.60;49.70;;;;;;4998404;28;20057;-79
2023/08/09 12:18:24;;;;;;;6.10;1.42;;;29.70;49.00;;;;;;5004491;28;20034;-80
2023/08/09 12:20:50;;;;;;;8.38;2.45;;;29.70;49.70;;;;;;4975739;28;20053;-80
2023/08/09 12:23:16;;;;;;;4.30;1.73;;;29.90;48.60;;;;;;5010203;28;20034;-79
2023/08/09 12:25:45;;;;;;;4.85;1.38;;;30.10;47.90;;;;;;5022235;28;20074;-79
2023/08/09 12:28:11;;;;;;;21.30;2.58;;;30.30;47.80;;;;;;5008526;28;20038;-79
2023/08/09 12:30:37;;;;;;;3.97;1.58;;;30.40;48.80;;;;;;5017063;28;20158;-79
2023/08/09 12:33:04;;;;;;;4.70;1.52;;;30.60;47.60;;;;;;5017565;28;20427;-79
2023/08/09 12:35:29;;;;;;;3.53;1.73;;;30.60;46.40;;;;;;5009113;28;20026;-79
2023/08/09 12:37:55;;;;;;;2.23;1.27;;;30.60;47.10;;;;;;5016750;28;20076;-79
2023/08/09 12:40:21;;;;;;;4.43;1.47;;;30.60;46.90;;;;;;5001965;28;20257;-79
2023/08/09 12:42:47;;;;;;;7.28;2.03;;;30.70;46.40;;;;;;5024378;28;20465;-79
2023/08/09 12:45:13;;;;;;;3.15;1.55;;;30.80;46.60;;;;;;5013239;28;20026;-80
2023/08/09 12:47:39;;;;;;;5.17;1.73;;;31.00;46.90;;;;;;5020417;28;20057;-80